Time;durP1;ratioP1;P1;durP2;ratioP2;P2;SDS_P1;SDS_P2;PMS_P1;PMS_P2;Temp;Humidity;BMP_temperature;BMP_pressure;BME280_temperature;BME280_humidity;BME280_pressure;Samples;Min_cycle;Max_cycle;Signal;HPM_P1;HPM_P2
2021/12/28 00:00:12;;;;;;;2.55;0.50;;;19.80;99.90;;;;;;5057391;28;20477;-68
2021/12/28 00:02:40;;;;;;;7.53;0.70;;;19.80;99.90;;;;;;5053698;28;20041;-68
2021/12/28 00:05:09;;;;;;;7.53;0.82;;;19.90;99.90;;;;;;5056198;28;20595;-68
2021/12/28 00:07:38;;;;;;;8.95;1.73;;;20.10;99.90;;;;;;5055625;28;20060;-69
2021/12/28 00:10:07;;;;;;;4.28;0.77;;;20.30;99.90;;;;;;5056399;28;20083;-68
2021/12/28 00:12:37;;;;;;;4.15;0.60;;;20.50;99.90;;;;;;5046416;28;20029;-69
2021/12/28 00:15:30;;;;;;;5.65;0.75;;;20.70;99.90;;;;;;5057768;28;20052;-70
2021/12/28 00:18:00;;;;;;;4.10;1.00;;;20.70;99.90;;;;;;5061213;28;20029;-68
2021/12/28 00:20:49;;;;;;;8.48;1.75;;;20.60;99.90;;;;;;5062262;28;20025;-67
2021/12/28 00:23:24;;;;;;;8.27;1.15;;;19.60;99.90;;;;;;5053229;28;20029;-68
2021/12/28 00:25:53;;;;;;;5.65;0.68;;;18.70;99.90;;;;;;5052084;28;20013;-68
2021/12/28 00:28:22;;;;;;;8.18;1.08;;;18.40;99.90;;;;;;5035969;28;20040;-69
2021/12/28 00:30:50;;;;;;;10.57;1.00;;;18.40;99.90;;;;;;5051833;28;20025;-70
2021/12/28 00:33:20;;;;;;;4.90;0.55;;;18.30;99.90;;;;;;5054893;28;20385;-69
2021/12/28 00:35:47;;;;;;;5.00;0.50;;;18.40;99.90;;;;;;5054888;28;20021;-67
2021/12/28 00:38:19;;;;;;;9.45;1.42;;;18.60;99.90;;;;;;5053741;28;20060;-70
2021/12/28 00:40:48;;;;;;;3.63;0.65;;;19.10;99.90;;;;;;5053247;28;20031;-68
2021/12/28 00:43:16;;;;;;;8.90;0.73;;;19.70;99.90;;;;;;5052071;28;20049;-68
2021/12/28 00:45:44;;;;;;;5.75;0.50;;;20.30;99.90;;;;;;5051939;28;20116;-69
2021/12/28 00:48:11;;;;;;;3.70;0.40;;;20.50;99.90;;;;;;5052512;28;20056;-69
2021/12/28 00:50:39;;;;;;;5.20;0.55;;;21.00;99.90;;;;;;5054800;28;20484;-69
2021/12/28 00:53:06;;;;;;;8.15;1.17;;;21.20;99.90;;;;;;5054197;28;20078;-68
2021/12/28 00:55:34;;;;;;;7.95;0.50;;;20.80;99.90;;;;;;5053172;28;20017;-68
2021/12/28 00:58:01;;;;;;;9.60;1.25;;;20.60;99.90;;;;;;5053791;28;20052;-67
2021/12/28 01:00:31;;;;;;;5.72;0.88;;;20.50;99.90;;;;;;5057067;28;20031;-70
2021/12/28 01:02:59;;;;;;;4.95;0.50;;;20.00;99.90;;;;;;5059146;28;20112;-68
2021/12/28 01:05:28;;;;;;;5.63;0.73;;;19.70;99.90;;;;;;5057611;28;20021;-69
2021/12/28 01:07:56;;;;;;;6.55;1.05;;;19.50;99.90;;;;;;5045602;28;20024;-68
2021/12/28 01:10:27;;;;;;;3.15;0.50;;;19.60;99.90;;;;;;5053546;28;20382;-70
2021/12/28 01:12:55;;;;;;;6.68;0.82;;;19.50;99.90;;;;;;5056638;28;20024;-68
2021/12/28 01:15:24;;;;;;;11.30;1.02;;;19.20;99.90;;;;;;5057504;28;20036;-67
2021/12/28 01:17:52;;;;;;;8.38;0.93;;;18.90;99.90;;;;;;5057542;28;20033;-70
2021/12/28 01:20:19;;;;;;;8.32;1.02;;;18.60;99.90;;;;;;5057482;28;20073;-67
2021/12/28 01:22:48;;;;;;;4.90;0.80;;;18.30;99.90;;;;;;5054459;28;20127;-68
2021/12/28 01:25:17;;;;;;;10.10;1.17;;;18.00;99.90;;;;;;5058125;28;20029;-68
2021/12/28 01:27:45;;;;;;;7.70;0.70;;;17.70;99.90;;;;;;5054045;28;20049;-67
2021/12/28 01:30:14;;;;;;;7.68;1.13;;;17.60;99.90;;;;;;5054975;28;20025;-67
2021/12/28 01:32:41;;;;;;;6.40;0.77;;;17.60;99.90;;;;;;5054018;28;20032;-68
2021/12/28 01:35:10;;;;;;;5.70;0.85;;;17.50;99.90;;;;;;5054084;28;20021;-68
2021/12/28 01:37:38;;;;;;;7.50;0.80;;;17.20;99.90;;;;;;5051919;28;20029;-68
2021/12/28 01:40:09;;;;;;;8.52;1.23;;;16.90;99.90;;;;;;5054143;28;20033;-68
2021/12/28 01:43:12;;;;;;;8.25;0.98;;;16.90;99.90;;;;;;5053725;28;20025;-68
2021/12/28 01:45:47;;;;;;;9.00;0.98;;;16.90;99.90;;;;;;5054399;28;20029;-67
2021/12/28 01:48:27;;;;;;;7.43;0.93;;;16.80;99.90;;;;;;5053711;28;20052;-68
2021/12/28 01:50:58;;;;;;;8.93;1.60;;;16.70;99.90;;;;;;5052622;28;20021;-67
2021/12/28 01:53:27;;;;;;;7.60;1.10;;;16.70;99.90;;;;;;5055808;28;20562;-69
2021/12/28 01:55:57;;;;;;;9.18;0.90;;;16.60;99.90;;;;;;5052101;28;20040;-69
2021/12/28 01:58:26;;;;;;;9.10;1.35;;;16.70;99.90;;;;;;5054103;28;20033;-68
2021/12/28 02:00:55;;;;;;;6.65;1.10;;;16.70;99.90;;;;;;5051007;28;20034;-68
2021/12/28 02:03:24;;;;;;;10.10;1.98;;;16.80;99.90;;;;;;5045033;28;20081;-69
2021/12/28 02:05:51;;;;;;;10.85;1.35;;;16.90;99.90;;;;;;5051527;28;20554;-68
2021/12/28 02:08:19;;;;;;;14.98;1.60;;;16.90;99.90;;;;;;5033766;28;20084;-66
2021/12/28 02:10:49;;;;;;;12.00;1.38;;;16.60;99.90;;;;;;5035390;28;20382;-68
2021/12/28 02:13:18;;;;;;;7.68;1.23;;;16.50;99.90;;;;;;5053686;28;20052;-67
2021/12/28 02:15:46;;;;;;;7.30;0.95;;;16.40;99.90;;;;;;5053894;28;20401;-68
2021/12/28 02:18:16;;;;;;;8.98;1.27;;;16.30;99.90;;;;;;5051238;28;20029;-67
2021/12/28 02:20:44;;;;;;;10.13;2.05;;;16.40;99.90;;;;;;5034198;28;20052;-67
2021/12/28 02:23:12;;;;;;;10.48;1.33;;;16.50;99.90;;;;;;5051852;28;20025;-65
2021/12/28 02:25:40;;;;;;;10.70;1.45;;;16.60;99.90;;;;;;5054072;28;20032;-68
2021/12/28 02:28:09;;;;;;;5.05;0.73;;;16.70;99.90;;;;;;5054156;28;20405;-67
2021/12/28 02:30:39;;;;;;;11.02;1.88;;;16.90;99.90;;;;;;5053151;28;20045;-68
2021/12/28 02:33:08;;;;;;;9.50;2.08;;;17.10;99.90;;;;;;5052789;28;20485;-70
2021/12/28 02:35:36;;;;;;;11.23;1.45;;;17.30;99.90;;;;;;5053549;28;20370;-67
2021/12/28 02:38:06;;;;;;;11.13;0.80;;;17.30;99.90;;;;;;5051361;28;20067;-67
2021/12/28 02:40:35;;;;;;;9.18;1.00;;;17.40;99.90;;;;;;5052943;28;20068;-67
2021/12/28 02:43:05;;;;;;;11.75;1.17;;;17.80;99.90;;;;;;5035745;28;20385;-68
2021/12/28 02:45:36;;;;;;;5.35;0.93;;;18.50;99.90;;;;;;5033876;28;20022;-69
2021/12/28 02:48:05;;;;;;;6.68;0.98;;;18.80;99.90;;;;;;5053863;28;20120;-68
2021/12/28 02:50:41;;;;;;;10.02;1.33;;;19.20;99.90;;;;;;5054920;28;20101;-70
2021/12/28 02:53:10;;;;;;;10.43;1.05;;;19.30;99.90;;;;;;5054960;28;20029;-68
2021/12/28 02:55:39;;;;;;;5.72;0.80;;;19.20;99.90;;;;;;5057782;28;20021;-69
2021/12/28 02:58:13;;;;;;;5.97;0.70;;;19.20;99.90;;;;;;5043214;28;20040;-69
2021/12/28 03:00:40;;;;;;;7.87;1.57;;;19.30;99.90;;;;;;5037015;28;20517;-70
2021/12/28 03:03:22;;;;;;;4.45;0.70;;;19.60;99.90;;;;;;5038948;28;20100;-69
2021/12/28 03:05:51;;;;;;;3.90;1.10;;;19.80;99.90;;;;;;5052619;28;20032;-70
2021/12/28 03:08:22;;;;;;;7.05;0.80;;;19.90;99.90;;;;;;5035515;28;20061;-69
2021/12/28 03:10:50;;;;;;;3.63;0.50;;;19.60;99.90;;;;;;5034564;28;20056;-67
2021/12/28 03:13:22;;;;;;;3.20;0.55;;;19.90;99.90;;;;;;5036334;28;20025;-69
2021/12/28 03:15:50;;;;;;;5.43;0.95;;;19.60;99.90;;;;;;5052412;28;20481;-68
2021/12/28 03:18:18;;;;;;;4.45;0.40;;;19.20;99.90;;;;;;5033981;28;20166;-68
2021/12/28 03:20:47;;;;;;;4.35;0.82;;;19.10;99.90;;;;;;5034327;28;20458;-67
2021/12/28 03:23:21;;;;;;;7.35;0.95;;;19.00;99.90;;;;;;5034158;28;20033;-68
2021/12/28 03:25:48;;;;;;;3.88;0.40;;;18.90;99.90;;;;;;5032796;28;20021;-68
2021/12/28 03:28:29;;;;;;;4.85;0.85;;;19.10;99.90;;;;;;5054131;28;20033;-67
2021/12/28 03:31:00;;;;;;;4.60;0.85;;;19.10;99.90;;;;;;5051588;28;20087;-68
2021/12/28 03:33:30;;;;;;;7.28;0.88;;;19.10;99.90;;;;;;5033293;28;20557;-68
2021/12/28 03:35:57;;;;;;;4.68;0.95;;;19.20;99.90;;;;;;5036320;28;20036;-67
2021/12/28 03:38:25;;;;;;;6.45;1.38;;;19.30;99.90;;;;;;5053377;28;20025;-68
2021/12/28 03:40:53;;;;;;;8.52;0.93;;;19.40;99.90;;;;;;5052731;28;20044;-69
2021/12/28 03:43:22;;;;;;;6.45;0.82;;;19.50;99.90;;;;;;5041312;28;20473;-68
2021/12/28 03:45:51;;;;;;;13.18;1.55;;;19.70;99.90;;;;;;5050518;28;20412;-68
2021/12/28 03:48:18;;;;;;;7.43;0.60;;;19.80;99.90;;;;;;5033005;28;20112;-68
2021/12/28 03:50:46;;;;;;;7.57;0.80;;;19.90;99.90;;;;;;5035008;28;20029;-68
2021/12/28 03:53:14;;;;;;;5.55;0.60;;;20.20;99.90;;;;;;5050369;28;20033;-69
2021/12/28 03:55:41;;;;;;;6.32;1.30;;;20.30;99.90;;;;;;5051173;28;20505;-69
2021/12/28 03:58:08;;;;;;;2.63;0.40;;;20.60;99.90;;;;;;5054518;28;20500;-68
2021/12/28 04:00:40;;;;;;;4.75;0.70;;;20.40;99.90;;;;;;5051554;28;20115;-68
2021/12/28 04:03:07;;;;;;;2.42;0.88;;;20.60;99.90;;;;;;5055358;28;20533;-68
2021/12/28 04:05:37;;;;;;;6.63;0.65;;;20.70;99.90;;;;;;5054878;28;20040;-69
2021/12/28 04:08:05;;;;;;;3.85;0.70;;;20.70;99.90;;;;;;5055847;28;20079;-69
2021/12/28 04:10:50;;;;;;;4.95;0.40;;;20.50;99.90;;;;;;5055675;28;20044;-69
2021/12/28 04:13:17;;;;;;;;;;;20.50;99.90;;;;;;5056731;28;20405;-68
2021/12/28 04:15:45;;;;;;;5.40;0.52;;;20.40;99.90;;;;;;5057498;28;20309;-69
2021/12/28 04:18:13;;;;;;;5.82;0.70;;;20.10;99.90;;;;;;5055338;28;20104;-68
2021/12/28 04:20:40;;;;;;;5.68;0.93;;;20.00;99.90;;;;;;5051805;28;20029;-67
2021/12/28 04:23:08;;;;;;;6.20;0.65;;;20.10;99.90;;;;;;5051892;28;20028;-68
2021/12/28 04:25:36;;;;;;;6.57;0.95;;;20.10;99.90;;;;;;5052298;28;20063;-67
2021/12/28 04:28:03;;;;;;;6.57;0.60;;;20.20;99.90;;;;;;5052847;28;20032;-68
2021/12/28 04:30:31;;;;;;;8.45;1.33;;;20.20;99.90;;;;;;5067672;28;20047;-69
2021/12/28 04:32:58;;;;;;;9.00;1.27;;;19.90;99.90;;;;;;5033728;28;20386;-68
2021/12/28 04:35:25;;;;;;;5.25;0.52;;;19.70;99.90;;;;;;5034158;28;20029;-68
2021/12/28 04:37:53;;;;;;;6.18;0.57;;;19.50;99.90;;;;;;5054493;28;20041;-69
2021/12/28 04:40:22;;;;;;;4.63;0.60;;;19.50;99.90;;;;;;5056932;28;20047;-68
2021/12/28 04:42:50;;;;;;;3.38;0.47;;;19.50;99.90;;;;;;5054879;28;20124;-69
2021/12/28 04:45:18;;;;;;;4.68;0.73;;;19.50;99.90;;;;;;5052662;28;20083;-68
2021/12/28 04:47:45;;;;;;;7.18;0.75;;;19.80;99.90;;;;;;5053947;28;20041;-68
2021/12/28 04:50:14;;;;;;;4.80;0.50;;;20.00;99.90;;;;;;5058290;28;20116;-68
2021/12/28 04:52:43;;;;;;;5.80;0.93;;;20.00;99.90;;;;;;5056234;28;20063;-68
2021/12/28 04:55:16;;;;;;;6.40;0.70;;;19.90;99.90;;;;;;5056090;28;20020;-69
2021/12/28 04:57:45;;;;;;;6.97;0.82;;;19.60;99.90;;;;;;5055241;28;20156;-69
2021/12/28 05:00:19;;;;;;;8.20;1.60;;;19.50;99.90;;;;;;5056302;28;20078;-68
2021/12/28 05:02:47;;;;;;;4.75;0.90;;;19.50;99.90;;;;;;5051521;28;20026;-69
2021/12/28 05:05:14;;;;;;;8.07;1.15;;;19.60;99.90;;;;;;5046320;28;20029;-69
2021/12/28 05:07:42;;;;;;;8.63;0.68;;;19.70;99.90;;;;;;5050760;28;20067;-69
2021/12/28 05:10:11;;;;;;;10.00;1.00;;;20.10;99.90;;;;;;5055847;28;20027;-69
2021/12/28 05:12:39;;;;;;;8.43;1.38;;;20.40;99.90;;;;;;5055074;28;20053;-69
2021/12/28 05:15:07;;;;;;;10.35;2.28;;;20.70;99.90;;;;;;5056552;28;20033;-69
2021/12/28 05:17:35;;;;;;;9.02;1.00;;;20.40;99.90;;;;;;5056492;28;20017;-69
2021/12/28 05:20:02;;;;;;;5.30;0.63;;;20.30;99.90;;;;;;5058127;28;20047;-70
2021/12/28 05:22:30;;;;;;;9.68;1.33;;;20.20;99.90;;;;;;5055467;28;20025;-69
2021/12/28 05:24:57;;;;;;;8.23;0.80;;;20.10;99.90;;;;;;5056090;28;20033;-69
2021/12/28 05:27:24;;;;;;;10.30;1.88;;;20.10;99.90;;;;;;5054454;28;20115;-69
2021/12/28 05:29:52;;;;;;;8.43;0.88;;;20.20;99.90;;;;;;5058109;28;20068;-68
2021/12/28 05:32:19;;;;;;;5.32;0.80;;;20.40;99.90;;;;;;5049560;28;20026;-69
2021/12/28 05:34:46;;;;;;;7.40;0.80;;;20.50;99.90;;;;;;5047927;28;20108;-68
2021/12/28 05:37:14;;;;;;;7.30;1.00;;;20.70;99.90;;;;;;5059339;28;20397;-68
2021/12/28 05:39:41;;;;;;;5.35;0.75;;;20.80;99.90;;;;;;5051076;28;20170;-69
2021/12/28 05:42:08;;;;;;;7.15;1.02;;;20.90;99.90;;;;;;5044653;28;20128;-71
2021/12/28 05:44:36;;;;;;;6.13;0.75;;;21.00;99.90;;;;;;5054886;28;20037;-68
2021/12/28 05:47:03;;;;;;;8.65;1.42;;;20.90;99.90;;;;;;5055391;28;20124;-70
2021/12/28 05:49:30;;;;;;;7.22;1.10;;;21.10;99.90;;;;;;5060184;28;20033;-71
2021/12/28 05:51:58;;;;;;;9.07;1.02;;;21.10;99.90;;;;;;5059585;28;20059;-69
2021/12/28 05:54:25;;;;;;;3.90;1.63;;;21.30;99.90;;;;;;5060813;28;20082;-70
2021/12/28 05:56:52;;;;;;;7.50;0.80;;;21.40;99.90;;;;;;5057794;28;20029;-70
2021/12/28 05:59:20;;;;;;;8.10;0.90;;;21.30;99.90;;;;;;5058409;28;20037;-68
2021/12/28 06:01:47;;;;;;;7.53;2.25;;;21.00;99.90;;;;;;5057541;28;20074;-69
2021/12/28 06:04:14;;;;;;;5.07;1.02;;;20.60;99.90;;;;;;5059836;28;20052;-68
2021/12/28 06:06:42;;;;;;;8.88;2.28;;;20.40;99.90;;;;;;5058466;28;20052;-68
2021/12/28 06:09:09;;;;;;;9.05;1.38;;;20.50;99.90;;;;;;5054024;28;20033;-68
2021/12/28 06:11:36;;;;;;;2.83;0.50;;;20.50;99.90;;;;;;5051502;28;20025;-68
2021/12/28 06:14:04;;;;;;;6.32;1.33;;;20.30;99.90;;;;;;5040463;28;20025;-68
2021/12/28 06:16:32;;;;;;;15.63;1.17;;;20.10;99.90;;;;;;5044945;28;20024;-68
2021/12/28 06:18:59;;;;;;;4.15;1.13;;;20.10;99.90;;;;;;5057003;28;20393;-67
2021/12/28 06:21:30;;;;;;;7.38;1.10;;;20.10;99.90;;;;;;5057851;28;20033;-68
2021/12/28 06:23:59;;;;;;;3.75;0.55;;;19.90;99.90;;;;;;5059438;28;20095;-68
2021/12/28 06:26:28;;;;;;;8.20;1.75;;;19.80;99.90;;;;;;5056185;28;20029;-68
2021/12/28 06:28:56;;;;;;;8.20;3.75;;;19.50;99.90;;;;;;5048057;28;20029;-68
2021/12/28 06:31:28;;;;;;;5.65;0.98;;;19.30;99.90;;;;;;5043634;28;20090;-67
2021/12/28 06:34:00;;;;;;;5.43;1.20;;;19.20;99.90;;;;;;5058691;28;20473;-68
2021/12/28 06:36:28;;;;;;;5.70;0.65;;;19.20;99.90;;;;;;5054723;28;20124;-68
2021/12/28 06:38:56;;;;;;;6.40;1.10;;;19.40;99.90;;;;;;5058503;28;20029;-68
2021/12/28 06:41:24;;;;;;;6.50;0.77;;;19.20;99.90;;;;;;5055187;28;20493;-68
2021/12/28 06:43:51;;;;;;;6.28;1.23;;;19.10;99.90;;;;;;5058235;28;20021;-68
2021/12/28 06:46:19;;;;;;;6.88;1.33;;;19.00;99.90;;;;;;5056407;28;20695;-70
2021/12/28 06:48:46;;;;;;;4.63;0.80;;;18.90;99.90;;;;;;5055108;28;20155;-69
2021/12/28 06:51:14;;;;;;;6.45;0.70;;;19.10;99.90;;;;;;5052199;28;20026;-69
2021/12/28 06:53:41;;;;;;;10.25;2.63;;;19.20;99.90;;;;;;5056215;28;20485;-69
2021/12/28 06:56:09;;;;;;;6.50;1.17;;;19.20;99.90;;;;;;5055791;28;20041;-70
2021/12/28 06:58:36;;;;;;;7.53;1.45;;;19.20;99.90;;;;;;5051714;28;20036;-69
2021/12/28 07:01:04;;;;;;;9.45;2.30;;;19.30;99.90;;;;;;5054784;28;20109;-69
2021/12/28 07:03:31;;;;;;;10.25;1.52;;;19.20;99.90;;;;;;5040685;28;20025;-69
2021/12/28 07:05:59;;;;;;;6.20;1.00;;;19.20;99.90;;;;;;5053655;28;20029;-68
2021/12/28 07:08:27;;;;;;;6.18;1.10;;;19.30;99.90;;;;;;5057397;28;20017;-69
2021/12/28 07:10:55;;;;;;;6.75;1.38;;;19.30;99.90;;;;;;5055747;28;20032;-69
2021/12/28 07:13:22;;;;;;;10.63;2.25;;;19.40;99.90;;;;;;5054813;28;20032;-69
2021/12/28 07:15:50;;;;;;;10.02;3.83;;;19.40;99.90;;;;;;5055058;28;20107;-70
2021/12/28 07:18:17;;;;;;;14.75;5.25;;;19.40;99.90;;;;;;5057773;28;20028;-68
2021/12/28 07:20:45;;;;;;;10.00;1.85;;;19.40;99.90;;;;;;5055776;28;20393;-69
2021/12/28 07:23:12;;;;;;;4.88;1.27;;;19.10;99.90;;;;;;5043352;28;20041;-68
2021/12/28 07:25:39;;;;;;;6.25;2.75;;;19.00;99.90;;;;;;5034997;28;20021;-69
2021/12/28 07:28:07;;;;;;;10.30;1.80;;;18.90;99.90;;;;;;5045547;28;20032;-69
2021/12/28 07:30:35;;;;;;;7.07;1.58;;;18.80;99.90;;;;;;5034560;28;20453;-69
2021/12/28 07:33:02;;;;;;;3.97;0.80;;;18.80;99.90;;;;;;5052085;28;20444;-68
2021/12/28 07:35:29;;;;;;;9.50;1.25;;;18.80;99.90;;;;;;5054240;28;20029;-68
2021/12/28 07:37:56;;;;;;;7.57;0.90;;;18.80;99.90;;;;;;5070423;28;20390;-68
2021/12/28 07:40:24;;;;;;;12.07;1.20;;;18.70;99.90;;;;;;5054520;28;20067;-69
2021/12/28 07:42:51;;;;;;;5.90;0.73;;;18.70;99.90;;;;;;5033788;28;20079;-69
2021/12/28 07:45:18;;;;;;;7.00;0.68;;;18.80;99.90;;;;;;5049967;28;20030;-69
2021/12/28 07:47:46;;;;;;;6.60;1.00;;;18.70;99.90;;;;;;5055673;28;20132;-68
2021/12/28 07:50:15;;;;;;;3.85;0.88;;;18.70;99.90;;;;;;5058966;28;20025;-69
2021/12/28 07:52:44;;;;;;;12.55;1.75;;;18.70;99.90;;;;;;5055621;28;20498;-69
2021/12/28 07:55:12;;;;;;;12.32;1.98;;;18.70;99.90;;;;;;5055096;28;20021;-68
2021/12/28 07:57:40;;;;;;;7.70;0.70;;;18.60;99.90;;;;;;5050247;28;20029;-68
2021/12/28 08:00:11;;;;;;;5.38;0.98;;;18.60;99.90;;;;;;5053182;28;20398;-68
2021/12/28 08:02:39;;;;;;;9.27;1.02;;;18.70;99.90;;;;;;5054100;28;20024;-69
2021/12/28 08:05:07;;;;;;;6.97;1.33;;;18.70;99.90;;;;;;5052648;28;20390;-68
2021/12/28 08:07:34;;;;;;;7.88;0.88;;;18.70;99.90;;;;;;5053079;28;20029;-68
2021/12/28 08:10:02;;;;;;;7.70;1.00;;;18.50;99.90;;;;;;5055355;28;20505;-67
2021/12/28 08:12:29;;;;;;;6.07;1.33;;;18.50;99.90;;;;;;5051067;28;20036;-68
2021/12/28 08:14:57;;;;;;;4.88;1.45;;;18.50;99.90;;;;;;5050796;28;20048;-67
2021/12/28 08:17:26;;;;;;;6.53;1.55;;;18.60;99.90;;;;;;5043762;28;20103;-67
2021/12/28 08:19:53;;;;;;;8.57;0.80;;;18.70;99.90;;;;;;5036072;28;20382;-68
2021/12/28 08:22:20;;;;;;;4.03;0.50;;;18.80;99.90;;;;;;5048288;28;20040;-67
2021/12/28 08:24:47;;;;;;;8.10;1.67;;;18.70;99.90;;;;;;5054139;28;20025;-68
2021/12/28 08:27:15;;;;;;;16.02;1.10;;;18.80;99.90;;;;;;5053954;28;20026;-68
2021/12/28 08:29:42;;;;;;;10.90;1.63;;;18.80;99.90;;;;;;5055196;28;20081;-68
2021/12/28 08:32:09;;;;;;;2.38;0.40;;;18.70;99.90;;;;;;5058663;28;20036;-68
2021/12/28 08:34:37;;;;;;;5.60;0.95;;;18.70;99.90;;;;;;5057958;28;20029;-69
2021/12/28 08:37:04;;;;;;;7.78;1.15;;;18.60;99.90;;;;;;5045727;28;20053;-68
2021/12/28 08:39:32;;;;;;;5.75;0.50;;;18.60;99.90;;;;;;5036698;28;20039;-68
2021/12/28 08:41:59;;;;;;;10.63;1.77;;;18.50;99.90;;;;;;5044848;28;20425;-68
2021/12/28 08:44:27;;;;;;;7.85;0.80;;;18.50;99.90;;;;;;5058303;28;20029;-69
2021/12/28 08:46:55;;;;;;;9.48;1.42;;;18.40;99.90;;;;;;5057164;28;20116;-68
2021/12/28 08:49:25;;;;;;;11.60;1.70;;;18.40;99.90;;;;;;5057403;28;20021;-71
2021/12/28 08:51:53;;;;;;;7.55;0.90;;;18.30;99.90;;;;;;5044033;28;20043;-67
2021/12/28 08:54:20;;;;;;;6.03;0.60;;;18.30;99.90;;;;;;5040268;28;20034;-69
2021/12/28 08:56:50;;;;;;;7.10;0.82;;;18.30;99.90;;;;;;5045910;28;20040;-69
2021/12/28 08:59:19;;;;;;;5.72;0.73;;;18.20;99.90;;;;;;5053918;28;20029;-67
2021/12/28 09:01:48;;;;;;;9.50;0.57;;;18.20;99.90;;;;;;5057476;28;20047;-68
2021/12/28 09:04:16;;;;;;;6.03;3.47;;;18.10;99.90;;;;;;5053301;28;20034;-68
2021/12/28 09:06:46;;;;;;;6.38;2.30;;;18.10;99.90;;;;;;5056239;28;20052;-67
2021/12/28 09:09:14;;;;;;;8.55;4.35;;;18.10;99.90;;;;;;5055304;28;20033;-68
2021/12/28 09:11:43;;;;;;;8.95;2.13;;;18.00;99.90;;;;;;5059231;28;20036;-67
2021/12/28 09:14:11;;;;;;;7.93;1.27;;;18.00;99.90;;;;;;5057356;28;20051;-68
2021/12/28 09:16:38;;;;;;;8.23;1.20;;;18.10;99.90;;;;;;5053767;28;20032;-68
2021/12/28 09:19:05;;;;;;;7.60;1.20;;;18.10;99.90;;;;;;5043089;28;20041;-69
2021/12/28 09:21:33;;;;;;;5.28;0.88;;;18.10;99.90;;;;;;5045591;28;20013;-68
2021/12/28 09:24:00;;;;;;;5.43;0.80;;;18.10;99.90;;;;;;5060673;28;20039;-69
2021/12/28 09:26:28;;;;;;;2.53;0.40;;;18.10;99.90;;;;;;5064911;28;20052;-69
2021/12/28 09:28:55;;;;;;;9.13;0.90;;;18.00;99.90;;;;;;5059240;28;20025;-69
2021/12/28 09:31:23;;;;;;;7.45;0.80;;;18.00;99.90;;;;;;5047334;28;20112;-69
2021/12/28 09:33:50;;;;;;;3.10;0.63;;;18.00;99.90;;;;;;5063178;28;20044;-69
2021/12/28 09:36:18;;;;;;;6.00;0.90;;;18.00;99.90;;;;;;5057894;28;20026;-69
2021/12/28 09:38:46;;;;;;;6.25;1.15;;;17.90;99.90;;;;;;5058968;28;20128;-68
2021/12/28 09:41:14;;;;;;;7.18;0.52;;;17.90;99.90;;;;;;5057706;28;20472;-68
2021/12/28 09:43:42;;;;;;;9.73;0.95;;;17.90;99.90;;;;;;5058008;28;20512;-68
2021/12/28 09:46:10;;;;;;;6.70;0.85;;;17.90;99.90;;;;;;5055355;28;20755;-69
2021/12/28 09:48:38;;;;;;;5.88;0.88;;;17.90;99.90;;;;;;5056193;28;20028;-68
2021/12/28 09:51:07;;;;;;;7.05;0.90;;;17.80;99.90;;;;;;5056653;28;20021;-68
2021/12/28 09:53:35;;;;;;;10.50;0.90;;;17.70;99.90;;;;;;5055422;28;20029;-69
2021/12/28 09:56:04;;;;;;;4.63;0.70;;;17.60;99.90;;;;;;5056263;28;20406;-68
2021/12/28 09:58:39;;;;;;;6.22;0.68;;;17.60;99.90;;;;;;5055666;28;20017;-69
2021/12/28 10:01:08;;;;;;;5.90;1.63;;;17.70;99.90;;;;;;5055084;28;20028;-68
2021/12/28 10:03:36;;;;;;;6.22;1.85;;;17.70;99.90;;;;;;5058083;28;20025;-69
2021/12/28 10:06:21;;;;;;;6.10;0.93;;;17.80;99.90;;;;;;5054871;28;20108;-68
2021/12/28 10:09:03;;;;;;;6.50;0.90;;;17.90;99.90;;;;;;5058565;28;20441;-68
2021/12/28 10:11:39;;;;;;;5.78;0.80;;;17.90;99.90;;;;;;5053924;28;20025;-69
2021/12/28 10:14:15;;;;;;;4.78;0.60;;;18.00;99.90;;;;;;5057801;28;20468;-69
2021/12/28 10:16:45;;;;;;;8.25;0.65;;;18.00;99.90;;;;;;5056529;28;20105;-70
2021/12/28 10:19:33;;;;;;;4.40;0.43;;;18.10;99.90;;;;;;5055335;28;20524;-69
2021/12/28 10:22:42;;;;;;;6.78;0.60;;;18.10;99.90;;;;;;5058100;28;20040;-70
2021/12/28 10:25:22;;;;;;;6.95;0.60;;;18.20;99.90;;;;;;5057627;28;20021;-69
2021/12/28 10:27:52;;;;;;;10.18;1.55;;;18.30;99.90;;;;;;5057081;28;20025;-69
2021/12/28 10:30:48;;;;;;;3.83;0.55;;;18.30;99.90;;;;;;5056392;28;20033;-68
2021/12/28 10:33:21;;;;;;;8.30;0.95;;;18.30;99.90;;;;;;5070743;28;20033;-68
2021/12/28 10:36:02;;;;;;;7.15;1.20;;;18.30;99.90;;;;;;5056954;28;20382;-68
2021/12/28 10:38:39;;;;;;;5.95;0.88;;;18.30;99.90;;;;;;5038628;28;20025;-69
2021/12/28 10:41:08;;;;;;;7.65;0.95;;;18.30;99.90;;;;;;5042526;28;20538;-69
2021/12/28 10:43:39;;;;;;;9.77;0.88;;;18.40;99.90;;;;;;5055675;28;20021;-69
2021/12/28 10:46:12;;;;;;;6.32;0.90;;;18.40;99.90;;;;;;5054489;28;20028;-69
2021/12/28 10:48:49;;;;;;;10.70;0.82;;;18.40;99.90;;;;;;5057248;28;20124;-68
2021/12/28 10:51:23;;;;;;;4.22;0.50;;;18.30;99.90;;;;;;5055663;28;20029;-68
2021/12/28 10:56:38;;;;;;;5.57;0.80;;;18.40;99.90;;;;;;5054722;28;20055;-68
2021/12/28 10:59:07;;;;;;;5.30;0.63;;;18.40;99.90;;;;;;5039385;28;20048;-69
2021/12/28 11:01:38;;;;;;;5.32;1.15;;;18.40;99.90;;;;;;5043596;28;20067;-68
2021/12/28 11:04:13;;;;;;;4.03;0.57;;;18.40;99.90;;;;;;5056737;28;20378;-68
2021/12/28 11:06:44;;;;;;;10.55;1.55;;;18.40;99.90;;;;;;5055461;28;20029;-68
2021/12/28 11:09:17;;;;;;;3.28;0.82;;;18.30;99.90;;;;;;5056374;28;20027;-69
2021/12/28 11:11:45;;;;;;;6.65;0.82;;;18.30;99.90;;;;;;5049715;28;20420;-68
2021/12/28 11:14:16;;;;;;;9.75;1.50;;;18.30;99.90;;;;;;5036929;28;20060;-69
2021/12/28 11:16:53;;;;;;;6.95;0.60;;;18.30;99.90;;;;;;5054907;28;20040;-69
2021/12/28 11:19:29;;;;;;;5.72;0.70;;;18.20;99.90;;;;;;5044038;28;20492;-69
2021/12/28 11:22:05;;;;;;;6.80;0.98;;;18.10;99.90;;;;;;5055045;28;20025;-69
2021/12/28 11:24:35;;;;;;;3.83;0.60;;;18.10;99.90;;;;;;5056334;28;20500;-69
2021/12/28 11:27:05;;;;;;;7.50;0.93;;;18.10;99.90;;;;;;5056050;28;20098;-69
2021/12/28 11:29:37;;;;;;;3.65;0.60;;;18.10;99.90;;;;;;5056154;28;20074;-69
2021/12/28 11:32:16;;;;;;;5.97;1.02;;;18.10;99.90;;;;;;5054339;28;20060;-70
2021/12/28 11:34:46;;;;;;;5.78;0.60;;;18.00;99.90;;;;;;5054143;28;20024;-70
2021/12/28 11:37:20;;;;;;;6.30;0.70;;;18.00;99.90;;;;;;5046853;28;20079;-69
2021/12/28 11:39:48;;;;;;;;;;;18.00;99.90;;;;;;5052122;28;20091;-69
2021/12/28 11:42:17;;;;;;;3.38;0.63;;;18.10;99.90;;;;;;5047244;28;20003;-69
2021/12/28 11:44:45;;;;;;;11.00;0.85;;;18.10;99.90;;;;;;5052757;28;20083;-69
2021/12/28 11:47:14;;;;;;;8.23;1.05;;;18.10;99.90;;;;;;5049666;28;20050;-69
2021/12/28 11:49:42;;;;;;;8.02;0.57;;;18.00;99.90;;;;;;5036701;28;20038;-69
2021/12/28 11:52:14;;;;;;;3.10;0.80;;;18.00;99.90;;;;;;5047168;28;20029;-70
2021/12/28 11:54:44;;;;;;;9.40;0.70;;;18.00;99.90;;;;;;5054061;28;20090;-69
2021/12/28 11:57:17;;;;;;;4.60;0.55;;;18.00;99.90;;;;;;5051072;28;20032;-69
2021/12/28 11:59:58;;;;;;;5.93;0.95;;;18.00;99.90;;;;;;5053229;28;20389;-69
2021/12/28 12:02:45;;;;;;;6.15;0.50;;;18.00;99.90;;;;;;5049617;28;20105;-69
2021/12/28 12:05:23;;;;;;;8.90;1.23;;;17.90;99.90;;;;;;5042766;28;20504;-69
2021/12/28 12:08:13;;;;;;;5.88;1.27;;;17.90;99.90;;;;;;5051217;28;20508;-69
2021/12/28 12:10:46;;;;;;;8.13;1.33;;;17.90;99.90;;;;;;5053659;28;20485;-69
2021/12/28 12:13:28;;;;;;;5.30;0.63;;;17.90;99.90;;;;;;5053459;28;20025;-70
2021/12/28 12:16:01;;;;;;;7.70;2.30;;;17.90;99.90;;;;;;5052049;28;20442;-68
2021/12/28 12:18:32;;;;;;;6.88;1.42;;;17.90;99.90;;;;;;5053833;28;20055;-69
2021/12/28 12:21:05;;;;;;;7.45;1.73;;;17.80;99.90;;;;;;5050978;28;20044;-68
2021/12/28 12:23:43;;;;;;;8.73;1.10;;;17.80;99.90;;;;;;5033395;28;20471;-69
2021/12/28 12:26:17;;;;;;;4.88;0.60;;;17.80;99.90;;;;;;5049681;28;20520;-69
2021/12/28 12:28:48;;;;;;;5.55;1.10;;;17.80;99.90;;;;;;5034096;28;20022;-68
2021/12/28 12:31:25;;;;;;;9.75;0.73;;;17.70;99.90;;;;;;5046776;28;20017;-68
2021/12/28 12:33:53;;;;;;;7.28;1.17;;;17.80;99.90;;;;;;5050960;28;20071;-67
2021/12/28 12:36:41;;;;;;;8.57;0.60;;;17.70;99.90;;;;;;5051587;28;20131;-68
2021/12/28 12:39:11;;;;;;;6.07;0.52;;;17.60;99.90;;;;;;5051746;28;20063;-68
2021/12/28 12:41:59;;;;;;;8.93;0.77;;;17.70;99.90;;;;;;5051202;28;20033;-68
2021/12/28 12:44:27;;;;;;;1.98;0.30;;;17.80;99.90;;;;;;5053537;28;20025;-68
2021/12/28 12:47:07;;;;;;;6.18;0.70;;;17.80;99.90;;;;;;5050717;28;20061;-69
2021/12/28 12:49:36;;;;;;;4.70;0.40;;;17.70;99.90;;;;;;5053680;28;20032;-69
2021/12/28 12:52:16;;;;;;;6.50;1.23;;;17.60;99.90;;;;;;5052710;28;20031;-68
2021/12/28 12:54:53;;;;;;;4.45;0.65;;;17.50;99.90;;;;;;5052527;28;20025;-68
2021/12/28 12:57:28;;;;;;;3.15;0.60;;;17.40;99.90;;;;;;5054282;28;20027;-68
2021/12/28 13:00:00;;;;;;;3.10;0.77;;;17.40;99.90;;;;;;5057961;28;20056;-67
2021/12/28 13:02:31;;;;;;;7.07;0.88;;;17.30;99.90;;;;;;5055388;28;20029;-69